Time;durP1;ratioP1;P1;durP2;ratioP2;P2;SDS_P1;SDS_P2;PMS_P1;PMS_P2;Temp;Humidity;BMP_temperature;BMP_pressure;BME280_temperature;BME280_humidity;BME280_pressure;Samples;Min_cycle;Max_cycle;Signal;HPM_P1;HPM_P2
2022/10/03 00:00:07;;;;;;;;;;;;;;;20.00;58.81;98977.97;2115894;27;20393;-50
2022/10/03 00:01:28;;;;;;;;;;;;;;;20.01;59.07;98973.41;2113581;27;19925;-49
2022/10/03 00:02:39;;;;;;;;;;;;;;;20.00;58.84;98966.31;2115272;27;19938;-49
2022/10/03 00:03:45;;;;;;;;;;;;;;;20.02;58.99;98977.72;2115059;27;19928;-52
2022/10/03 00:04:57;;;;;;;;;;;;;;;20.00;58.95;98969.88;2111797;27;19928;-48
2022/10/03 00:06:08;;;;;;;;;;;;;;;20.00;58.92;98966.31;2115899;27;20004;-48
2022/10/03 00:07:18;;;;;;;;;;;;;;;20.00;58.81;98969.03;2115400;27;19923;-49
2022/10/03 00:08:26;;;;;;;;;;;;;;;19.99;58.72;98965.50;2115264;27;19977;-51
2022/10/03 00:09:34;;;;;;;;;;;;;;;19.99;58.84;98959.28;2112522;27;20534;-49
2022/10/03 00:10:40;;;;;;;;;;;;;;;19.99;59.02;98959.28;2117446;27;20295;-48
2022/10/03 00:11:48;;;;;;;;;;;;;;;19.99;59.19;98956.59;2114669;27;19935;-48
2022/10/03 00:13:04;;;;;;;;;;;;;;;19.99;59.26;98962.00;2112784;27;19970;-49
2022/10/03 00:14:11;;;;;;;;;;;;;;;19.98;58.98;98961.16;2109041;27;20022;-48
2022/10/03 00:15:16;;;;;;;;;;;;;;;19.99;58.94;98962.00;2113368;27;19930;-51
2022/10/03 00:16:19;;;;;;;;;;;;;;;20.00;58.91;98963.63;2110064;27;19930;-50
2022/10/03 00:17:23;;;;;;;;;;;;;;;20.01;58.97;98965.31;2114213;27;19961;-49
2022/10/03 00:18:33;;;;;;;;;;;;;;;19.99;58.82;98964.69;2116780;27;19934;-48
2022/10/03 00:19:39;;;;;;;;;;;;;;;19.97;59.19;98970.25;2112823;27;20394;-52
2022/10/03 00:20:45;;;;;;;;;;;;;;;19.98;59.14;98960.34;2112589;27;20464;-49
2022/10/03 00:21:53;;;;;;;;;;;;;;;20.00;59.01;98966.31;2113915;27;19923;-50
2022/10/03 00:22:57;;;;;;;;;;;;;;;19.99;58.99;98962.00;2110066;27;19923;-49
2022/10/03 00:24:04;;;;;;;;;;;;;;;19.99;58.94;98959.28;2118396;27;19930;-50
2022/10/03 00:25:28;;;;;;;;;;;;;;;19.99;59.14;98962.00;2117428;27;20018;-51
2022/10/03 00:26:35;;;;;;;;;;;;;;;19.99;59.13;98962.00;2107660;27;19932;-49
2022/10/03 00:27:40;;;;;;;;;;;;;;;19.99;58.83;98962.00;2111574;27;19928;-48
2022/10/03 00:28:49;;;;;;;;;;;;;;;19.99;59.17;98967.38;2114033;27;20054;-48
2022/10/03 00:29:55;;;;;;;;;;;;;;;20.00;59.04;98969.03;2114056;27;19979;-49
2022/10/03 00:31:04;;;;;;;;;;;;;;;19.98;59.14;98966.56;2117787;27;20361;-47
2022/10/03 00:32:11;;;;;;;;;;;;;;;19.97;59.21;98964.06;2112980;27;19996;-49
2022/10/03 00:33:18;;;;;;;;;;;;;;;19.99;59.00;98967.38;2116149;27;19931;-47
2022/10/03 00:34:25;;;;;;;;;;;;;;;19.98;58.89;98963.84;2115243;27;19931;-49
2022/10/03 00:35:38;;;;;;;;;;;;;;;19.98;59.11;98966.56;2113163;27;19928;-48
2022/10/03 00:36:44;;;;;;;;;;;;;;;19.98;59.00;98963.84;2114440;27;20629;-48
2022/10/03 00:37:56;;;;;;;;;;;;;;;20.00;58.97;98969.03;2111289;27;19930;-49
2022/10/03 00:39:13;;;;;;;;;;;;;;;20.00;59.15;98958.25;2113984;27;19935;-48
2022/10/03 00:40:33;;;;;;;;;;;;;;;19.99;59.10;98956.59;2114807;27;19924;-48
2022/10/03 00:41:52;;;;;;;;;;;;;;;19.98;58.90;98950.41;2113871;27;19974;-49
2022/10/03 00:43:24;;;;;;;;;;;;;;;19.99;59.07;98956.59;2109414;27;19936;-48
2022/10/03 00:44:37;;;;;;;;;;;;;;;19.98;59.07;98960.34;2112953;27;19928;-50
2022/10/03 00:45:59;;;;;;;;;;;;;;;19.98;58.88;98965.72;2115599;27;20002;-50
2022/10/03 00:47:14;;;;;;;;;;;;;;;19.99;59.16;98967.38;2113492;27;19932;-49
2022/10/03 00:48:28;;;;;;;;;;;;;;;19.99;59.27;98962.81;2113380;27;19966;-48
2022/10/03 00:49:52;;;;;;;;;;;;;;;19.99;58.79;98960.13;2112162;27;19923;-52
2022/10/03 00:50:59;;;;;;;;;;;;;;;20.00;59.03;98964.50;2113857;27;19976;-52
2022/10/03 00:52:07;;;;;;;;;;;;;;;19.98;58.82;98963.84;2114023;27;20008;-48
2022/10/03 00:53:16;;;;;;;;;;;;;;;19.99;58.92;98956.59;2113961;27;20044;-48
2022/10/03 00:54:26;;;;;;;;;;;;;;;19.98;59.09;98961.16;2117523;27;19923;-48
2022/10/03 00:55:34;;;;;;;;;;;;;;;19.99;58.77;98967.38;2111058;27;19923;-50
2022/10/03 00:56:42;;;;;;;;;;;;;;;19.98;58.77;98963.03;2112900;27;20007;-50
2022/10/03 00:58:04;;;;;;;;;;;;;;;19.97;59.16;98962.19;2111689;27;19928;-48
2022/10/03 00:59:15;;;;;;;;;;;;;;;19.98;59.07;98963.03;2087366;27;19924;-54
2022/10/03 01:00:19;;;;;;;;;;;;;;;19.98;59.20;98968.41;2113983;27;20844;-50
2022/10/03 01:01:21;;;;;;;;;;;;;;;19.97;58.86;98964.88;2114048;27;20694;-47
2022/10/03 01:02:36;;;;;;;;;;;;;;;19.98;58.94;98960.34;2111037;27;19927;-48
2022/10/03 01:03:41;;;;;;;;;;;;;;;19.97;59.07;98964.06;2112793;27;19928;-48
2022/10/03 01:04:51;;;;;;;;;;;;;;;19.99;59.04;98962.00;2114631;27;19980;-48
2022/10/03 01:05:59;;;;;;;;;;;;;;;19.99;58.82;98970.06;2116759;27;19928;-48
2022/10/03 01:07:06;;;;;;;;;;;;;;;19.99;59.19;98956.59;2114827;27;20294;-48
2022/10/03 01:08:24;;;;;;;;;;;;;;;19.99;59.13;98956.59;2117153;27;19931;-48
2022/10/03 01:09:43;;;;;;;;;;;;;;;19.98;58.84;98949.56;2115235;27;19927;-48
2022/10/03 01:10:49;;;;;;;;;;;;;;;19.98;58.89;98957.66;2101333;27;19928;-50
2022/10/03 01:12:00;;;;;;;;;;;;;;;19.99;59.09;98956.59;2116847;27;20448;-49
2022/10/03 01:13:11;;;;;;;;;;;;;;;19.99;59.07;98960.13;2112685;27;20392;-48
2022/10/03 01:14:21;;;;;;;;;;;;;;;19.97;59.24;98954.09;2109850;27;19978;-49
2022/10/03 01:15:27;;;;;;;;;;;;;;;19.98;59.13;98949.56;2110872;27;20285;-48
2022/10/03 01:16:36;;;;;;;;;;;;;;;19.97;59.08;98950.59;2111307;27;19924;-49
2022/10/03 01:17:47;;;;;;;;;;;;;;;19.97;59.15;98954.09;2096576;28;19928;-51
2022/10/03 01:18:57;;;;;;;;;;;;;;;19.99;58.91;98953.91;2108539;27;19930;-50
2022/10/03 01:20:17;;;;;;;;;;;;;;;19.98;59.28;98954.97;2111539;27;19976;-48
2022/10/03 01:21:27;;;;;;;;;;;;;;;19.98;58.92;98957.66;2113112;27;19976;-49
2022/10/03 01:22:43;;;;;;;;;;;;;;;19.97;59.21;98953.28;2113545;27;20085;-48
2022/10/03 01:24:02;;;;;;;;;;;;;;;19.98;59.08;98952.25;2110347;27;20675;-47
2022/10/03 01:25:10;;;;;;;;;;;;;;;19.98;59.11;98952.25;2113518;27;19979;-48
2022/10/03 01:26:19;;;;;;;;;;;;;;;19.98;58.94;98949.56;2111221;27;19932;-48
2022/10/03 01:27:25;;;;;;;;;;;;;;;19.98;58.99;98950.41;2111148;27;19923;-50
2022/10/03 01:31:24;;;;;;;;;;;;;;;19.98;58.88;98954.97;2113164;27;20280;-48
2022/10/03 01:32:27;;;;;;;;;;;;;;;19.99;59.00;98954.75;2112773;27;19923;-50
2022/10/03 01:33:32;;;;;;;;;;;;;;;19.98;59.11;98950.41;2113994;27;19928;-49
2022/10/03 01:34:37;;;;;;;;;;;;;;;19.96;59.20;98943.56;2111631;27;19983;-49
2022/10/03 01:35:45;;;;;;;;;;;;;;;19.96;59.04;98947.06;2112699;27;20565;-48
2022/10/03 01:36:51;;;;;;;;;;;;;;;19.95;59.02;98940.03;2112728;27;20329;-46
2022/10/03 01:37:58;;;;;;;;;;;;;;;19.96;59.30;98946.25;2108043;27;19974;-47
2022/10/03 01:39:01;;;;;;;;;;;;;;;19.97;59.09;98950.59;2112948;27;19945;-47
2022/10/03 01:40:09;;;;;;;;;;;;;;;19.97;59.06;98946.03;2111289;27;19992;-48
2022/10/03 01:41:13;;;;;;;;;;;;;;;19.97;59.27;98947.91;2114128;27;20326;-49
2022/10/03 01:42:19;;;;;;;;;;;;;;;19.96;58.90;98941.69;2111684;27;20397;-48
2022/10/03 01:43:21;;;;;;;;;;;;;;;19.96;59.17;98941.69;2110217;27;20042;-47
2022/10/03 01:44:29;;;;;;;;;;;;;;;19.98;59.25;98938.81;2111443;28;19927;-47
2022/10/03 01:45:39;;;;;;;;;;;;;;;19.97;59.19;98937.13;2113356;27;20022;-49
2022/10/03 01:46:45;;;;;;;;;;;;;;;19.97;59.34;98943.34;2112056;27;21431;-48
2022/10/03 01:47:50;;;;;;;;;;;;;;;19.96;59.32;98944.38;2113758;27;19928;-47
2022/10/03 01:48:58;;;;;;;;;;;;;;;19.97;58.93;98948.72;2113695;27;20488;-48
2022/10/03 01:50:02;;;;;;;;;;;;;;;19.97;59.18;98948.72;2110890;28;19932;-48
2022/10/03 01:51:07;;;;;;;;;;;;;;;19.98;59.11;98949.56;2114307;27;19959;-47
2022/10/03 01:52:11;;;;;;;;;;;;;;;19.98;58.90;98946.88;2110549;28;20321;-49
2022/10/03 01:53:15;;;;;;;;;;;;;;;19.97;59.20;98937.94;2114703;27;19924;-46
2022/10/03 01:54:20;;;;;;;;;;;;;;;19.98;59.11;98933.41;2108570;28;20462;-47
2022/10/03 01:55:24;;;;;;;;;;;;;;;19.97;59.07;98934.44;2109320;27;19923;-53
2022/10/03 01:56:31;;;;;;;;;;;;;;;19.99;59.05;98940.44;2107845;27;19928;-49
2022/10/03 01:57:37;;;;;;;;;;;;;;;19.98;59.25;98944.19;2108278;28;19924;-51
2022/10/03 01:58:44;;;;;;;;;;;;;;;19.98;59.06;98939.63;2115882;27;19930;-49
2022/10/03 01:59:51;;;;;;;;;;;;;;;19.99;59.09;98945.84;2108465;28;20181;-47
2022/10/03 02:00:57;;;;;;;;;;;;;;;19.98;58.98;98936.94;2111493;28;19962;-52
2022/10/03 02:02:03;;;;;;;;;;;;;;;19.98;59.29;98941.50;2111298;28;19923;-52
2022/10/03 02:03:10;;;;;;;;;;;;;;;19.97;59.36;98937.13;2112010;28;19974;-51
2022/10/03 02:04:13;;;;;;;;;;;;;;;19.96;58.92;98936.31;2102060;28;19935;-50
2022/10/03 02:05:19;;;;;;;;;;;;;;;19.97;59.00;98931.75;2112367;27;19938;-51
2022/10/03 02:06:25;;;;;;;;;;;;;;;19.97;59.19;98942.50;2108522;28;19927;-52
2022/10/03 02:07:30;;;;;;;;;;;;;;;19.97;58.92;98937.94;2116802;27;19931;-50
2022/10/03 02:08:42;;;;;;;;;;;;;;;19.97;59.19;98940.66;2111825;28;20322;-48
2022/10/03 02:09:50;;;;;;;;;;;;;;;19.98;59.09;98936.13;2115250;28;19923;-47
2022/10/03 02:10:54;;;;;;;;;;;;;;;19.96;59.38;98930.09;2114259;28;20015;-49
2022/10/03 02:12:00;;;;;;;;;;;;;;;19.96;59.02;98930.09;2114834;27;20558;-52
2022/10/03 02:13:06;;;;;;;;;;;;;;;19.96;59.33;98924.72;2111449;28;20006;-55
2022/10/03 02:14:17;;;;;;;;;;;;;;;19.96;59.24;98922.84;2111755;28;19931;-47
2022/10/03 02:15:23;;;;;;;;;;;;;;;19.96;58.90;98930.91;2110317;28;19923;-52
2022/10/03 02:16:30;;;;;;;;;;;;;;;19.96;59.21;98919.31;2109936;27;20170;-50
2022/10/03 02:17:43;;;;;;;;;;;;;;;19.96;59.34;98919.31;2109965;28;19971;-55
2022/10/03 02:18:49;;;;;;;;;;;;;;;19.97;58.92;98923.66;2110834;27;20012;-46
2022/10/03 02:19:55;;;;;;;;;;;;;;;19.97;59.01;98926.34;2110139;28;19932;-52
2022/10/03 02:21:07;;;;;;;;;;;;;;;19.96;59.32;98925.53;2107808;28;20370;-50
2022/10/03 02:22:12;;;;;;;;;;;;;;;19.96;59.03;98922.84;2110346;27;19976;-50
2022/10/03 02:23:24;;;;;;;;;;;;;;;19.96;59.22;98922.03;2098139;27;19966;-50
2022/10/03 02:24:41;;;;;;;;;;;;;;;19.96;58.99;98922.03;2109671;28;19927;-49
2022/10/03 02:25:51;;;;;;;;;;;;;;;19.96;58.87;98916.63;2114988;28;20837;-53
2022/10/03 02:27:06;;;;;;;;;;;;;;;19.97;58.94;98915.59;2114387;27;19923;-54
2022/10/03 02:28:27;;;;;;;;;;;;;;;19.96;59.09;98919.31;2109822;28;19939;-51
2022/10/03 02:29:40;;;;;;;;;;;;;;;19.97;58.93;98915.59;2108875;27;20530;-50
2022/10/03 02:30:56;;;;;;;;;;;;;;;19.97;59.24;98916.41;2115707;28;19959;-47
2022/10/03 02:32:09;;;;;;;;;;;;;;;19.97;59.03;98916.41;2114638;27;19932;-47
2022/10/03 02:33:23;;;;;;;;;;;;;;;19.97;59.16;98915.59;2113007;27;19928;-48
2022/10/03 02:34:29;;;;;;;;;;;;;;;19.98;58.93;98911.88;2111728;28;19932;-49
2022/10/03 02:35:42;;;;;;;;;;;;;;;19.96;59.09;98920.16;2112712;27;19939;-47
2022/10/03 02:36:52;;;;;;;;;;;;;;;19.96;59.10;98906.69;2112731;27;20017;-47
2022/10/03 02:38:09;;;;;;;;;;;;;;;19.97;59.15;98907.50;2113528;28;19927;-48
2022/10/03 02:39:28;;;;;;;;;;;;;;;19.96;59.04;98911.25;2110331;28;19954;-48
2022/10/03 02:40:34;;;;;;;;;;;;;;;19.95;59.09;98913.13;2112052;28;20544;-48
2022/10/03 02:41:50;;;;;;;;;;;;;;;19.95;59.19;98907.75;2111971;28;19928;-47
2022/10/03 02:43:12;;;;;;;;;;;;;;;19.95;59.27;98898.84;2112278;28;19924;-50
2022/10/03 02:44:22;;;;;;;;;;;;;;;19.95;59.29;98896.16;2109053;28;19932;-47
2022/10/03 02:45:42;;;;;;;;;;;;;;;19.96;59.14;98897.78;2107789;28;19982;-47
2022/10/03 02:47:13;;;;;;;;;;;;;;;19.97;59.01;98900.25;2114806;27;19923;-47
2022/10/03 02:48:28;;;;;;;;;;;;;;;19.97;59.20;98899.44;2099214;28;19932;-47
2022/10/03 02:49:45;;;;;;;;;;;;;;;19.95;59.25;98899.66;2081494;28;20725;-49
2022/10/03 02:51:01;;;;;;;;;;;;;;;19.96;59.25;98900.47;2102484;27;19924;-48
2022/10/03 02:52:21;;;;;;;;;;;;;;;19.96;58.97;98897.78;2112258;28;19924;-48
2022/10/03 02:53:40;;;;;;;;;;;;;;;19.96;59.04;98895.91;2109185;28;19935;-49
2022/10/03 02:54:50;;;;;;;;;;;;;;;19.95;58.92;98896.97;2110546;27;20045;-49
2022/10/03 02:56:06;;;;;;;;;;;;;;;19.94;59.21;98902.53;2113107;27;19968;-49
2022/10/03 02:57:27;;;;;;;;;;;;;;;19.95;59.13;98907.75;2108367;27;19923;-49
2022/10/03 02:58:36;;;;;;;;;;;;;;;19.96;58.99;98903.19;2106639;27;19980;-50
2022/10/03 02:59:55;;;;;;;;;;;;;;;19.95;59.31;98904.22;2114642;27;19931;-48
2022/10/03 03:01:19;;;;;;;;;;;;;;;19.96;59.35;98906.69;2096207;27;20760;-47
2022/10/03 03:02:44;;;;;;;;;;;;;;;19.95;59.08;98907.75;2115487;27;19924;-50
2022/10/03 03:04:03;;;;;;;;;;;;;;;19.96;59.09;98911.25;2112835;27;20369;-48
2022/10/03 03:05:23;;;;;;;;;;;;;;;19.96;59.33;98913.94;2111051;27;20020;-47
2022/10/03 03:06:32;;;;;;;;;;;;;;;19.98;59.10;98909.19;2108649;27;19927;-52
2022/10/03 03:07:38;;;;;;;;;;;;;;;19.96;59.34;98913.94;2105277;27;21176;-50
2022/10/03 03:09:01;;;;;;;;;;;;;;;19.97;59.10;98915.59;2116150;27;19935;-48
2022/10/03 03:10:20;;;;;;;;;;;;;;;19.95;59.27;98917.69;2112933;27;19927;-47
2022/10/03 03:11:38;;;;;;;;;;;;;;;19.98;59.11;98915.41;2113948;27;20421;-50
2022/10/03 03:12:57;;;;;;;;;;;;;;;19.97;59.08;98913.72;2091118;28;19973;-49
2022/10/03 03:14:11;;;;;;;;;;;;;;;19.97;59.09;98912.91;2112364;27;19930;-47
2022/10/03 03:15:27;;;;;;;;;;;;;;;19.96;59.29;98908.56;2109685;27;20437;-48
2022/10/03 03:16:56;;;;;;;;;;;;;;;19.95;59.08;98909.59;2089086;28;19990;-48
2022/10/03 03:18:01;;;;;;;;;;;;;;;19.94;59.37;98913.31;2089451;28;19928;-49
2022/10/03 03:19:18;;;;;;;;;;;;;;;19.94;59.38;98907.94;2102814;27;19927;-47
2022/10/03 03:20:37;;;;;;;;;;;;;;;19.96;59.02;98905.88;2116296;27;19977;-47
2022/10/03 03:21:42;;;;;;;;;;;;;;;19.95;59.34;98918.50;2116069;27;19931;-47
2022/10/03 03:22:51;;;;;;;;;;;;;;;19.96;59.03;98919.31;2117254;27;19927;-50
2022/10/03 03:23:59;;;;;;;;;;;;;;;19.95;58.95;98918.50;2110956;27;19962;-49
2022/10/03 03:25:07;;;;;;;;;;;;;;;19.96;58.99;98920.16;2114086;27;19931;-47
2022/10/03 03:26:19;;;;;;;;;;;;;;;19.96;59.26;98913.94;2110363;27;19938;-48
2022/10/03 03:27:27;;;;;;;;;;;;;;;19.96;59.01;98919.31;2115018;27;19924;-47
2022/10/03 03:28:34;;;;;;;;;;;;;;;19.95;59.02;98926.59;2115528;27;19932;-47
2022/10/03 03:29:40;;;;;;;;;;;;;;;19.97;59.24;98923.66;2109331;27;20011;-47
2022/10/03 03:30:48;;;;;;;;;;;;;;;19.97;59.40;98918.28;2111905;27;20002;-47
2022/10/03 03:31:53;;;;;;;;;;;;;;;19.96;59.12;98920.16;2115687;27;19952;-48
2022/10/03 03:33:03;;;;;;;;;;;;;;;19.95;59.06;98915.81;2111602;27;19928;-50
2022/10/03 03:34:08;;;;;;;;;;;;;;;19.95;59.02;98917.69;2113350;27;19932;-49
2022/10/03 03:35:17;;;;;;;;;;;;;;;19.94;59.30;98911.44;2115714;27;19974;-48
2022/10/03 03:36:25;;;;;;;;;;;;;;;19.95;59.01;98915.00;2116973;27;19983;-50
2022/10/03 03:37:33;;;;;;;;;;;;;;;19.94;59.25;98914.13;2112702;27;20021;-47
2022/10/03 03:38:39;;;;;;;;;;;;;;;19.95;59.31;98915.00;2112571;27;19935;-48
2022/10/03 03:39:50;;;;;;;;;;;;;;;19.96;59.20;98914.75;2111608;27;20902;-49
2022/10/03 03:40:59;;;;;;;;;;;;;;;19.95;59.10;98913.13;2107424;27;19923;-47
2022/10/03 03:42:03;;;;;;;;;;;;;;;19.95;59.18;98907.75;2111293;27;19931;-48
2022/10/03 03:43:22;;;;;;;;;;;;;;;19.95;59.17;98912.28;2110876;27;20308;-47
2022/10/03 03:44:53;;;;;;;;;;;;;;;19.95;59.18;98910.44;2114482;27;19924;-51
2022/10/03 03:46:03;;;;;;;;;;;;;;;19.96;59.10;98919.31;2096398;28;20086;-49
2022/10/03 03:47:13;;;;;;;;;;;;;;;19.97;59.35;98915.59;2109188;27;19924;-49
2022/10/03 03:48:21;;;;;;;;;;;;;;;19.96;59.43;98913.94;2112624;27;19984;-49
2022/10/03 03:49:29;;;;;;;;;;;;;;;19.95;59.48;98909.59;2114498;27;19968;-48
2022/10/03 03:50:43;;;;;;;;;;;;;;;19.96;59.24;98913.94;2112081;27;19928;-48
2022/10/03 03:51:51;;;;;;;;;;;;;;;19.95;59.55;98917.69;2112863;27;19931;-51
2022/10/03 03:53:03;;;;;;;;;;;;;;;19.95;59.27;98925.75;2108160;28;19931;-49
2022/10/03 03:54:15;;;;;;;;;;;;;;;19.94;59.17;98921.38;2114225;27;19971;-49
2022/10/03 03:55:35;;;;;;;;;;;;;;;19.94;59.30;98918.69;2112658;27;19936;-48
2022/10/03 03:56:41;;;;;;;;;;;;;;;19.95;59.42;98920.38;2113470;27;19927;-48
2022/10/03 03:58:01;;;;;;;;;;;;;;;19.96;59.34;98924.72;2118339;27;19971;-50
2022/10/03 03:59:11;;;;;;;;;;;;;;;19.96;59.19;98922.03;2113731;27;19935;-50
2022/10/03 04:00:14;;;;;;;;;;;;;;;19.95;59.31;98913.13;2115055;27;20023;-48
2022/10/03 04:01:26;;;;;;;;;;;;;;;19.96;58.99;98919.31;2113938;27;20595;-48
2022/10/03 04:02:35;;;;;;;;;;;;;;;19.94;59.35;98908.75;2110420;27;19972;-49
2022/10/03 04:03:43;;;;;;;;;;;;;;;19.95;59.38;98912.28;2118349;27;20838;-48
2022/10/03 04:04:52;;;;;;;;;;;;;;;19.93;59.46;98909.78;2116245;27;20522;-49
2022/10/03 04:06:02;;;;;;;;;;;;;;;19.93;59.22;98914.34;2113793;27;19968;-47
2022/10/03 04:07:12;;;;;;;;;;;;;;;19.94;59.06;98916.00;2112253;27;19923;-50
2022/10/03 04:08:32;;;;;;;;;;;;;;;19.95;59.03;98917.69;2117611;27;19963;-49
2022/10/03 04:09:54;;;;;;;;;;;;;;;19.94;59.12;98918.69;2116544;27;19973;-50
2022/10/03 04:11:00;;;;;;;;;;;;;;;19.94;59.11;98916.00;2113801;27;19931;-49
2022/10/03 04:12:09;;;;;;;;;;;;;;;19.96;59.35;98922.84;2120342;27;19934;-48
2022/10/03 04:13:17;;;;;;;;;;;;;;;19.93;59.35;98917.88;2114989;27;20262;-47
2022/10/03 04:14:39;;;;;;;;;;;;;;;19.93;59.07;98915.19;2115577;27;19923;-48
2022/10/03 04:15:46;;;;;;;;;;;;;;;19.95;59.19;98912.28;2113873;27;19965;-48
2022/10/03 04:18:58;;;;;;;;;;;;;;;19.95;58.99;98909.59;2116173;27;19955;-49
2022/10/03 04:20:05;;;;;;;;;;;;;;;19.93;58.96;98909.78;2111504;27;20277;-48
2022/10/03 04:21:15;;;;;;;;;;;;;;;19.93;59.24;98914.34;2111417;27;19976;-50
2022/10/03 04:22:31;;;;;;;;;;;;;;;19.92;59.23;98910.84;2115259;27;19949;-51
2022/10/03 04:23:48;;;;;;;;;;;;;;;19.93;59.38;98908.97;2108084;27;19934;-48
2022/10/03 04:25:00;;;;;;;;;;;;;;;19.94;59.44;98913.31;2116319;27;20014;-50
2022/10/03 04:26:09;;;;;;;;;;;;;;;19.92;59.25;98912.69;2107704;27;19928;-50
2022/10/03 04:27:19;;;;;;;;;;;;;;;19.92;59.32;98910.84;2114918;27;19927;-48
2022/10/03 04:28:33;;;;;;;;;;;;;;;19.93;59.32;98909.78;2115829;27;19938;-48
2022/10/03 04:29:43;;;;;;;;;;;;;;;19.93;59.39;98909.78;2112348;27;20433;-49
2022/10/03 04:30:52;;;;;;;;;;;;;;;19.93;59.51;98917.06;2113096;27;19937;-50
2022/10/03 04:32:00;;;;;;;;;;;;;;;19.93;59.21;98914.34;2108200;27;19932;-48
2022/10/03 04:33:14;;;;;;;;;;;;;;;19.93;59.15;98903.59;2115707;27;19931;-48
2022/10/03 04:34:24;;;;;;;;;;;;;;;19.92;59.34;98910.00;2113038;27;20480;-48
2022/10/03 04:35:37;;;;;;;;;;;;;;;19.94;59.30;98911.44;2112779;27;19934;-50
2022/10/03 04:36:46;;;;;;;;;;;;;;;19.93;59.44;98904.41;2115846;27;19927;-49
2022/10/03 04:37:52;;;;;;;;;;;;;;;19.94;59.26;98905.22;2107057;27;19963;-49
2022/10/03 04:38:58;;;;;;;;;;;;;;;19.93;59.49;98906.28;2111473;27;19934;-48
2022/10/03 04:40:10;;;;;;;;;;;;;;;19.93;59.47;98908.97;2111600;27;19935;-49
2022/10/03 04:41:22;;;;;;;;;;;;;;;19.92;59.25;98912.69;2115691;27;19927;-55
2022/10/03 04:42:39;;;;;;;;;;;;;;;19.92;59.45;98912.69;2113585;27;20323;-52
2022/10/03 04:43:43;;;;;;;;;;;;;;;19.94;59.56;98916.00;2112227;27;20377;-51
2022/10/03 04:44:49;;;;;;;;;;;;;;;19.93;59.46;98919.75;2114183;27;20019;-50
2022/10/03 04:45:56;;;;;;;;;;;;;;;19.93;59.35;98920.56;2113214;27;19977;-49
2022/10/03 04:47:01;;;;;;;;;;;;;;;19.93;59.15;98920.56;2107161;28;20467;-49
2022/10/03 04:48:09;;;;;;;;;;;;;;;19.94;59.32;98924.09;2108472;27;19932;-47
2022/10/03 04:49:14;;;;;;;;;;;;;;;19.93;59.32;98915.19;2110963;27;20022;-54
2022/10/03 04:50:24;;;;;;;;;;;;;;;19.91;59.43;98922.63;2108781;27;19927;-54
2022/10/03 04:51:33;;;;;;;;;;;;;;;19.91;59.48;98911.84;2101956;27;20006;-52
2022/10/03 04:52:39;;;;;;;;;;;;;;;19.91;59.51;98919.94;2107953;28;20456;-53
2022/10/03 04:53:47;;;;;;;;;;;;;;;19.92;59.17;98918.06;2115183;27;20355;-52
2022/10/03 04:54:55;;;;;;;;;;;;;;;19.94;59.28;98921.38;2113948;27;19927;-52
2022/10/03 04:56:12;;;;;;;;;;;;;;;19.93;59.39;98920.56;2114028;27;19928;-50
2022/10/03 04:57:21;;;;;;;;;;;;;;;19.93;59.19;98919.75;2115627;27;19958;-49
2022/10/03 04:58:29;;;;;;;;;;;;;;;19.93;59.25;98919.75;2115503;27;20529;-52
2022/10/03 04:59:40;;;;;;;;;;;;;;;19.93;59.20;98914.34;2111882;27;20343;-52
2022/10/03 05:00:49;;;;;;;;;;;;;;;19.94;59.31;98916.00;2091232;27;20335;-51
2022/10/03 05:01:53;;;;;;;;;;;;;;;19.92;59.39;98923.44;2111112;27;19924;-52
2022/10/03 05:02:57;;;;;;;;;;;;;;;19.92;59.41;98915.38;2110658;27;19932;-47
2022/10/03 05:04:09;;;;;;;;;;;;;;;19.92;59.30;98927.00;2108892;27;20447;-51
2022/10/03 05:05:20;;;;;;;;;;;;;;;19.92;59.13;98924.31;2111821;27;20022;-48
2022/10/03 05:06:26;;;;;;;;;;;;;;;19.94;59.07;98926.78;2108998;27;19924;-52
2022/10/03 05:07:31;;;;;;;;;;;;;;;19.92;59.26;98923.44;2111683;27;19981;-49
2022/10/03 05:08:38;;;;;;;;;;;;;;;19.93;59.24;98925.13;2110119;27;19938;-50
2022/10/03 05:09:44;;;;;;;;;;;;;;;19.92;59.54;98931.53;2113224;27;20007;-51
2022/10/03 05:10:55;;;;;;;;;;;;;;;19.91;59.50;98925.31;2112705;27;19966;-49
2022/10/03 05:12:01;;;;;;;;;;;;;;;19.92;59.49;98926.13;2112527;27;20023;-51
2022/10/03 05:13:07;;;;;;;;;;;;;;;19.92;59.35;98931.53;2115251;27;19923;-48
2022/10/03 05:14:11;;;;;;;;;;;;;;;19.91;59.23;98922.63;2110290;27;19928;-48
2022/10/03 05:15:19;;;;;;;;;;;;;;;19.93;59.03;98930.50;2110389;28;20421;-53
2022/10/03 05:16:28;;;;;;;;;;;;;;;19.92;59.41;98928.84;2111557;27;20289;-53
2022/10/03 05:17:36;;;;;;;;;;;;;;;19.93;59.47;98933.19;2108996;27;19935;-50
2022/10/03 05:18:39;;;;;;;;;;;;;;;19.92;59.52;98926.13;2111410;27;19939;-50
2022/10/03 05:19:46;;;;;;;;;;;;;;;19.93;59.15;98925.13;2101256;27;19932;-51
2022/10/03 05:20:52;;;;;;;;;;;;;;;19.91;59.54;98930.69;2107162;27;19966;-50
2022/10/03 05:21:55;;;;;;;;;;;;;;;19.92;59.25;98927.00;2108785;27;19928;-49
2022/10/03 05:23:01;;;;;;;;;;;;;;;19.91;59.64;98927.19;2111343;27;19935;-49
2022/10/03 05:24:14;;;;;;;;;;;;;;;19.91;59.02;98921.81;2109548;27;20580;-48
2022/10/03 05:25:21;;;;;;;;;;;;;;;19.92;59.42;98926.13;2108188;27;19928;-52
2022/10/03 05:26:27;;;;;;;;;;;;;;;19.92;59.53;98929.69;2108702;27;19928;-52
2022/10/03 05:27:33;;;;;;;;;;;;;;;19.92;59.43;98923.44;2109649;27;20346;-54
2022/10/03 05:28:39;;;;;;;;;;;;;;;19.91;59.21;98925.31;2115804;27;20003;-52
2022/10/03 05:29:44;;;;;;;;;;;;;;;19.92;59.24;98934.22;2113462;27;19944;-52
2022/10/03 05:30:52;;;;;;;;;;;;;;;19.91;59.24;98928.00;2115339;27;19927;-53
2022/10/03 05:32:02;;;;;;;;;;;;;;;19.92;59.22;98934.22;2106588;27;20011;-56
2022/10/03 05:33:13;;;;;;;;;;;;;;;19.92;59.42;98937.75;2113329;27;19954;-52
2022/10/03 05:34:20;;;;;;;;;;;;;;;19.93;59.21;98941.28;2110960;27;20006;-51
2022/10/03 05:35:28;;;;;;;;;;;;;;;19.91;59.47;98941.47;2113470;27;20062;-51
2022/10/03 05:36:33;;;;;;;;;;;;;;;19.90;59.59;98937.13;2101995;27;20602;-48
2022/10/03 05:37:42;;;;;;;;;;;;;;;19.92;59.29;98942.28;2109821;27;20006;-53
2022/10/03 05:39:01;;;;;;;;;;;;;;;19.92;59.25;98939.59;2112645;27;19957;-50
2022/10/03 05:40:06;;;;;;;;;;;;;;;19.91;59.42;98940.66;2108275;27;20297;-50
2022/10/03 05:41:11;;;;;;;;;;;;;;;19.91;59.50;98938.78;2111218;27;20030;-54
2022/10/03 05:42:30;;;;;;;;;;;;;;;19.93;59.41;98943.97;2109102;27;19928;-52
2022/10/03 05:43:57;;;;;;;;;;;;;;;19.91;59.50;98940.66;2113655;27;19973;-49
2022/10/03 05:45:02;;;;;;;;;;;;;;;19.92;59.32;98948.53;2109620;27;20085;-53
2022/10/03 05:46:09;;;;;;;;;;;;;;;19.91;59.28;98946.84;2114257;27;20018;-51
2022/10/03 05:48:33;;;;;;;;;;;;;;;19.91;59.47;98951.41;2109797;28;19923;-50
2022/10/03 05:49:52;;;;;;;;;;;;;;;19.91;59.27;98954.09;2116233;27;20007;-49
2022/10/03 05:51:07;;;;;;;;;;;;;;;19.92;59.23;98955.75;2113375;28;19962;-48
2022/10/03 05:52:22;;;;;;;;;;;;;;;19.91;59.35;98959.50;2112822;27;20467;-50
2022/10/03 05:53:41;;;;;;;;;;;;;;;19.91;59.12;98959.50;2110344;27;20617;-54
2022/10/03 05:54:55;;;;;;;;;;;;;;;19.92;59.41;98963.81;2110379;28;19924;-53
2022/10/03 05:56:04;;;;;;;;;;;;;;;19.90;59.57;98960.53;2113446;27;19932;-51
2022/10/03 05:57:20;;;;;;;;;;;;;;;19.91;59.35;98962.19;2111954;28;19934;-55
2022/10/03 05:58:31;;;;;;;;;;;;;;;19.90;59.28;98963.22;2093896;28;19932;-53
2022/10/03 05:59:42;;;;;;;;;;;;;;;19.91;59.52;98965.69;2113016;28;19938;-52
2022/10/03 06:00:56;;;;;;;;;;;;;;;19.91;59.52;98963.00;2105284;28;19928;-49
2022/10/03 06:02:26;;;;;;;;;;;;;;;19.91;59.24;98960.31;2108638;28;20639;-52
2022/10/03 06:03:41;;;;;;;;;;;;;;;19.90;59.51;98964.06;2112282;28;20011;-50
2022/10/03 06:05:02;;;;;;;;;;;;;;;19.90;59.36;98964.06;2106338;28;20014;-50
2022/10/03 06:06:10;;;;;;;;;;;;;;;19.91;59.52;98965.69;2111071;28;19928;-55
2022/10/03 06:07:18;;;;;;;;;;;;;;;19.91;59.44;98964.88;2115775;27;19927;-49
2022/10/03 06:08:38;;;;;;;;;;;;;;;19.91;59.14;98964.88;2107822;28;19934;-48
2022/10/03 06:10:00;;;;;;;;;;;;;;;19.92;59.46;98972.75;2111966;28;20353;-53
2022/10/03 06:11:06;;;;;;;;;;;;;;;19.92;59.30;98969.22;2100410;28;19924;-47
2022/10/03 06:12:10;;;;;;;;;;;;;;;19.91;59.25;98965.69;2112753;28;19931;-52
2022/10/03 06:13:15;;;;;;;;;;;;;;;19.91;59.52;98970.25;2108118;28;19935;-50